createdAt,value
2023-01-06T00:04:53.777Z,1.37
2023-01-06T00:10:02.561Z,1.35
2023-01-06T00:15:11.100Z,1.57
2023-01-06T00:20:19.657Z,1.82
2023-01-06T00:25:27.794Z,1.25
2023-01-06T00:30:36.236Z,1.39
2023-01-06T00:35:44.377Z,1.42
2023-01-06T00:40:52.684Z,1.23
2023-01-06T00:46:01.202Z,1.38
2023-01-06T00:51:10.273Z,1.61
2023-01-06T00:56:18.894Z,1.54
2023-01-06T01:01:27.830Z,1.69
2023-01-06T01:06:35.942Z,1.43
2023-01-06T01:11:44.271Z,1.38
2023-01-06T01:16:53.502Z,1.41
2023-01-06T01:22:02.574Z,1.49
2023-01-06T01:27:10.781Z,1.55
2023-01-06T01:32:19.520Z,1.68
2023-01-06T01:37:27.735Z,1.55
2023-01-06T01:42:39.222Z,1.43
2023-01-06T01:47:37.482Z,1.55
2023-01-06T01:52:45.983Z,1.37
2023-01-06T01:57:54.336Z,1.67
2023-01-06T02:03:03.108Z,1.46
2023-01-06T02:08:11.393Z,1.57
2023-01-06T02:13:20.162Z,2.08
2023-01-06T02:18:28.551Z,1.36
2023-01-06T02:23:37.225Z,1.69
2023-01-06T02:28:45.478Z,1.69
2023-01-06T02:33:53.685Z,1.67
2023-01-06T02:39:02.035Z,2.21
2023-01-06T02:44:12.059Z,2.86
2023-01-06T02:49:18.482Z,2.16
2023-01-06T02:54:27.209Z,2.39
2023-01-06T02:59:35.697Z,2.58
2023-01-06T03:04:44.492Z,1.90
2023-01-06T03:09:52.713Z,2.18
2023-01-06T03:15:01.075Z,1.86
2023-01-06T03:20:09.420Z,1.92
2023-01-06T03:25:20.810Z,1.99
2023-01-06T03:30:18.987Z,2.54
2023-01-06T03:35:27.350Z,2.14
2023-01-06T03:40:35.567Z,2.32
2023-01-06T03:45:44.257Z,2.37
2023-01-06T03:50:52.565Z,2.45
2023-01-06T03:56:01.129Z,3.12
2023-01-06T04:01:09.638Z,2.65
2023-01-06T04:06:17.953Z,2.82
2023-01-06T04:11:26.555Z,3.05
2023-01-06T04:16:35.462Z,2.67
2023-01-06T04:21:43.866Z,2.76
2023-01-06T04:26:52.152Z,2.18
2023-01-06T04:32:00.425Z,2.37
2023-01-06T04:37:09.078Z,2.03
2023-01-06T04:42:17.498Z,2.13
2023-01-06T04:47:25.949Z,2.30
2023-01-06T04:52:34.460Z,2.08
2023-01-06T04:57:43.301Z,2.38
2023-01-06T05:02:51.602Z,2.21
2023-01-06T05:08:00.165Z,2.15
2023-01-06T05:13:08.569Z,1.94
2023-01-06T05:18:17.109Z,2.05
2023-01-06T05:23:25.318Z,2.08
2023-01-06T05:28:33.884Z,3.32
2023-01-06T05:33:41.908Z,2.11
2023-01-06T05:38:50.630Z,2.68
2023-01-06T05:43:58.772Z,2.26
2023-01-06T05:49:07.153Z,2.11
2023-01-06T05:54:15.466Z,2.03
2023-01-06T05:59:24.226Z,2.61
2023-01-06T06:04:32.758Z,2.38
2023-01-06T06:09:41.443Z,2.29
2023-01-06T06:14:49.689Z,2.19
2023-01-06T06:19:58.604Z,2.11
2023-01-06T06:25:06.847Z,2.21
2023-01-06T06:30:15.709Z,2.78
2023-01-06T06:35:24.228Z,3.05
2023-01-06T06:40:32.985Z,2.97
2023-01-06T06:45:41.370Z,3.14
2023-01-06T06:50:49.984Z,3.06
2023-01-06T06:55:58.248Z,3.46
2023-01-06T07:01:07.088Z,3.56
2023-01-06T07:06:15.748Z,3.00
2023-01-06T07:11:24.509Z,2.95
2023-01-06T07:16:32.894Z,3.76
2023-01-06T07:21:41.297Z,3.06
2023-01-06T07:26:49.392Z,3.93
2023-01-06T07:31:58.281Z,2.87
2023-01-06T07:37:06.627Z,3.45
2023-01-06T07:42:14.903Z,3.25
2023-01-06T07:47:23.169Z,2.66
2023-01-06T07:52:35.746Z,2.91
2023-01-06T07:57:34.415Z,2.23
2023-01-06T08:02:43.016Z,2.59
2023-01-06T08:07:51.746Z,2.76
2023-01-06T08:13:00.071Z,2.60
2023-01-06T08:18:08.911Z,4.25
2023-01-06T08:23:17.364Z,2.97
2023-01-06T08:28:25.670Z,2.76
2023-01-06T08:33:33.903Z,3.36
2023-01-06T08:38:42.833Z,3.15
2023-01-06T08:43:51.008Z,3.07
2023-01-06T08:48:59.539Z,2.32
2023-01-06T08:54:07.745Z,2.96
2023-01-06T08:59:16.042Z,2.91
2023-01-06T09:04:24.082Z,2.87
2023-01-06T09:09:32.769Z,3.32
2023-01-06T09:14:41.546Z,3.30
2023-01-06T09:19:49.960Z,2.78
2023-01-06T09:24:58.368Z,3.58
2023-01-06T09:30:07.243Z,4.53
2023-01-06T09:35:15.576Z,2.90
2023-01-06T09:40:24.071Z,3.32
2023-01-06T09:45:35.381Z,2.87
2023-01-06T09:50:33.880Z,2.78
2023-01-06T09:55:42.405Z,3.51
2023-01-06T10:00:50.804Z,3.36
2023-01-06T10:05:59.275Z,3.48
2023-01-06T10:11:07.586Z,2.94
2023-01-06T10:16:15.740Z,3.40
2023-01-06T10:21:24.007Z,3.95
2023-01-06T10:26:32.364Z,3.46
2023-01-06T10:31:41.005Z,3.23
2023-01-06T10:36:49.262Z,3.09
2023-01-06T10:41:57.996Z,3.32
2023-01-06T10:47:06.442Z,3.22
2023-01-06T10:52:15.245Z,3.86
2023-01-06T10:57:23.594Z,3.51
2023-01-06T11:02:31.946Z,3.21
2023-01-06T11:07:40.080Z,4.12
2023-01-06T11:12:48.584Z,3.95
2023-01-06T11:17:56.697Z,4.12
2023-01-06T11:23:05.151Z,6.01
2023-01-06T11:28:13.601Z,3.60
2023-01-06T11:33:22.431Z,2.97
2023-01-06T11:38:30.711Z,3.54
2023-01-06T11:43:39.372Z,3.89
2023-01-06T11:48:47.395Z,4.37
2023-01-06T11:53:55.794Z,3.99
2023-01-06T11:59:04.108Z,3.70
2023-01-06T12:04:12.482Z,3.68
2023-01-06T12:09:20.817Z,3.90
2023-01-06T12:14:29.935Z,3.98
2023-01-06T12:19:36.916Z,4.29
2023-01-06T12:24:45.332Z,3.86
2023-01-06T12:29:56.402Z,3.83
2023-01-06T12:34:55.025Z,3.54
2023-01-06T12:40:03.226Z,3.35
2023-01-06T12:45:11.378Z,4.02
2023-01-06T12:50:19.587Z,3.45
2023-01-06T12:55:29.172Z,3.07
2023-01-06T13:00:37.390Z,3.40
2023-01-06T13:05:45.679Z,3.28
2023-01-06T13:10:53.976Z,3.46
2023-01-06T13:16:02.527Z,3.44
2023-01-06T13:21:10.855Z,3.37
2023-01-06T13:26:19.741Z,3.90
2023-01-06T13:31:28.087Z,4.11
2023-01-06T13:36:36.559Z,4.07
2023-01-06T13:41:44.806Z,3.87
2023-01-06T13:46:53.581Z,2.90
2023-01-06T13:52:01.809Z,3.07
2023-01-06T13:57:10.393Z,2.70
2023-01-06T14:02:18.937Z,6.17
2023-01-06T14:07:27.837Z,5.73
2023-01-06T14:12:35.838Z,3.44
2023-01-06T14:17:44.478Z,3.11
2023-01-06T14:22:52.463Z,3.84
2023-01-06T14:28:01.221Z,3.51
2023-01-06T14:33:09.448Z,3.72
2023-01-06T14:38:18.296Z,4.31
2023-01-06T14:43:26.311Z,4.60
2023-01-06T14:48:34.851Z,8.72
2023-01-06T14:53:43.090Z,6.61
2023-01-06T14:58:51.494Z,3.37
2023-01-06T15:04:00.000Z,3.46
2023-01-06T15:09:08.494Z,3.07
2023-01-06T15:14:16.726Z,2.89
2023-01-06T15:19:25.187Z,3.90
2023-01-06T15:24:33.480Z,3.11
2023-01-06T15:29:41.860Z,3.08
2023-01-06T15:34:50.032Z,3.37
2023-01-06T15:39:58.653Z,3.01
2023-01-06T15:45:07.803Z,2.95
2023-01-06T15:50:14.968Z,3.50
2023-01-06T15:55:23.225Z,3.93
2023-01-06T16:00:31.993Z,4.21
2023-01-06T16:05:40.221Z,3.99
2023-01-06T16:10:49.198Z,4.22
2023-01-06T16:15:57.312Z,3.88
2023-01-06T16:21:06.043Z,3.67
2023-01-06T16:26:14.407Z,4.67
2023-01-06T16:31:23.031Z,3.92
2023-01-06T16:36:31.196Z,4.01
2023-01-06T16:41:39.423Z,4.89
2023-01-06T16:46:47.818Z,5.01
2023-01-06T16:51:56.117Z,5.17
2023-01-06T16:57:04.297Z,4.98
2023-01-06T17:02:13.175Z,5.30
2023-01-06T17:07:20.647Z,4.58
2023-01-06T17:12:29.175Z,6.06
2023-01-06T17:17:37.273Z,5.96
2023-01-06T17:22:45.969Z,5.44
2023-01-06T17:27:54.575Z,5.89
2023-01-06T17:33:03.077Z,4.81
2023-01-06T17:38:11.279Z,5.22
2023-01-06T17:43:19.956Z,4.65
2023-01-06T17:48:28.084Z,5.19
2023-01-06T17:53:37.119Z,5.13
2023-01-06T17:58:45.316Z,4.88
2023-01-06T18:03:54.061Z,4.52
2023-01-06T18:09:02.236Z,4.89
2023-01-06T18:14:11.091Z,4.87
2023-01-06T18:19:19.248Z,5.37
2023-01-06T18:24:27.621Z,4.48
2023-01-06T18:29:36.658Z,5.65
2023-01-06T18:34:44.054Z,6.15
2023-01-06T18:39:52.344Z,4.64
2023-01-06T18:45:01.059Z,4.54
2023-01-06T18:50:09.478Z,5.29
2023-01-06T18:55:17.940Z,6.43
2023-01-06T19:00:26.334Z,6.93
2023-01-06T19:05:35.417Z,6.72
2023-01-06T19:10:44.145Z,7.56
2023-01-06T19:15:52.796Z,7.01
2023-01-06T19:21:02.439Z,7.59
2023-01-06T19:26:10.720Z,7.54
2023-01-06T19:31:19.180Z,7.33
2023-01-06T19:36:27.458Z,8.05
2023-01-06T19:41:35.683Z,7.46
2023-01-06T19:46:44.410Z,7.34
2023-01-06T19:51:52.621Z,7.38
2023-01-06T19:57:01.314Z,8.18
2023-01-06T20:02:09.648Z,7.18
2023-01-06T20:07:18.106Z,7.57
2023-01-06T20:12:26.234Z,7.41
2023-01-06T20:17:34.700Z,6.50
2023-01-06T20:22:43.041Z,7.32
2023-01-06T20:27:51.757Z,7.51
2023-01-06T20:33:00.000Z,5.86
2023-01-06T20:38:08.439Z,7.89
2023-01-06T20:43:17.063Z,7.17
2023-01-06T20:48:25.800Z,6.97
2023-01-06T20:53:33.986Z,6.57
2023-01-06T20:58:42.596Z,5.04
2023-01-06T21:03:51.040Z,5.75
2023-01-06T21:08:59.649Z,6.47
2023-01-06T21:14:07.620Z,6.57
2023-01-06T21:19:17.470Z,5.29
2023-01-06T21:24:25.821Z,6.32
2023-01-06T21:29:34.293Z,5.54
2023-01-06T21:34:42.505Z,5.23
2023-01-06T21:39:50.939Z,5.64
2023-01-06T21:44:59.320Z,7.09
2023-01-06T21:50:07.621Z,6.01
2023-01-06T21:55:15.856Z,6.39
2023-01-06T22:00:24.655Z,6.23
2023-01-06T22:05:32.929Z,6.02
2023-01-06T22:10:41.498Z,4.78
2023-01-06T22:15:49.627Z,5.63
2023-01-06T22:20:58.063Z,6.95
2023-01-06T22:26:06.482Z,6.31
2023-01-06T22:31:15.035Z,6.08
2023-01-06T22:36:23.177Z,5.81
2023-01-06T22:41:31.610Z,6.39
2023-01-06T22:46:40.058Z,6.87
2023-01-06T22:51:48.698Z,5.75
2023-01-06T22:56:56.830Z,5.66
2023-01-06T23:02:05.720Z,6.28
2023-01-06T23:07:13.762Z,5.10
2023-01-06T23:12:22.534Z,6.39
2023-01-06T23:17:30.972Z,5.50
2023-01-06T23:22:39.649Z,5.66
2023-01-06T23:27:47.908Z,5.87
2023-01-06T23:32:56.532Z,5.68
2023-01-06T23:38:04.807Z,5.71
2023-01-06T23:43:13.420Z,6.35
2023-01-06T23:48:21.682Z,5.73
2023-01-06T23:53:30.201Z,5.35
2023-01-06T23:58:38.547Z,5.26
